sensor_id;sensor_type;location;lat;lon;timestamp;pressure;altitude;pressure_sealevel;temperature
28905;BMP280;60848;53.884;11.446;2023-07-31T00:00:48;100638.91;;;15.60
28905;BMP280;60848;53.884;11.446;2023-07-31T00:03:16;100638.50;;;15.62
28905;BMP280;60848;53.884;11.446;2023-07-31T00:05:45;100618.88;;;15.63
28905;BMP280;60848;53.884;11.446;2023-07-31T00:08:13;100615.88;;;15.64
28905;BMP280;60848;53.884;11.446;2023-07-31T00:10:43;100626.75;;;15.66
28905;BMP280;60848;53.884;11.446;2023-07-31T00:13:11;100615.50;;;15.66
28905;BMP280;60848;53.884;11.446;2023-07-31T00:15:40;100629.41;;;15.66
28905;BMP280;60848;53.884;11.446;2023-07-31T00:18:08;100620.75;;;15.66
28905;BMP280;60848;53.884;11.446;2023-07-31T00:20:37;100621.50;;;15.66
28905;BMP280;60848;53.884;11.446;2023-07-31T00:23:05;100624.84;;;15.67
28905;BMP280;60848;53.884;11.446;2023-07-31T00:25:35;100623.41;;;15.66
28905;BMP280;60848;53.884;11.446;2023-07-31T00:28:05;100611.34;;;15.65
28905;BMP280;60848;53.884;11.446;2023-07-31T00:30:33;100611.75;;;15.63
28905;BMP280;60848;53.884;11.446;2023-07-31T00:33:04;100608.34;;;15.63
28905;BMP280;60848;53.884;11.446;2023-07-31T00:35:34;100609.50;;;15.62
28905;BMP280;60848;53.884;11.446;2023-07-31T00:38:02;100618.56;;;15.61
28905;BMP280;60848;53.884;11.446;2023-07-31T00:40:34;100615.91;;;15.61
28905;BMP280;60848;53.884;11.446;2023-07-31T00:43:06;100599.38;;;15.60
28905;BMP280;60848;53.884;11.446;2023-07-31T00:45:35;100603.91;;;15.60
28905;BMP280;60848;53.884;11.446;2023-07-31T00:48:04;100590.72;;;15.60
28905;BMP280;60848;53.884;11.446;2023-07-31T00:50:36;100592.59;;;15.59
28905;BMP280;60848;53.884;11.446;2023-07-31T00:53:06;100586.19;;;15.60
28905;BMP280;60848;53.884;11.446;2023-07-31T00:55:35;100589.19;;;15.59
28905;BMP280;60848;53.884;11.446;2023-07-31T00:58:03;100586.22;;;15.57
28905;BMP280;60848;53.884;11.446;2023-07-31T01:00:36;100581.34;;;15.55
28905;BMP280;60848;53.884;11.446;2023-07-31T01:03:05;100586.28;;;15.53
28905;BMP280;60848;53.884;11.446;2023-07-31T01:05:36;100581.06;;;15.50
28905;BMP280;60848;53.884;11.446;2023-07-31T01:08:11;100578.81;;;15.48
28905;BMP280;60848;53.884;11.446;2023-07-31T01:10:45;100585.22;;;15.47
28905;BMP280;60848;53.884;11.446;2023-07-31T01:13:15;100581.47;;;15.45
28905;BMP280;60848;53.884;11.446;2023-07-31T01:15:45;100580.00;;;15.44
28905;BMP280;60848;53.884;11.446;2023-07-31T01:18:13;100574.00;;;15.43
28905;BMP280;60848;53.884;11.446;2023-07-31T01:20:42;100572.88;;;15.41
28905;BMP280;60848;53.884;11.446;2023-07-31T01:23:25;100563.16;;;15.38
28905;BMP280;60848;53.884;11.446;2023-07-31T01:26:03;100557.88;;;15.38
28905;BMP280;60848;53.884;11.446;2023-07-31T01:28:38;100554.09;;;15.39
28905;BMP280;60848;53.884;11.446;2023-07-31T01:31:09;100540.91;;;15.39
28905;BMP280;60848;53.884;11.446;2023-07-31T01:33:41;100541.25;;;15.41
28905;BMP280;60848;53.884;11.446;2023-07-31T01:36:10;100536.72;;;15.41
28905;BMP280;60848;53.884;11.446;2023-07-31T01:38:39;100542.00;;;15.41
28905;BMP280;60848;53.884;11.446;2023-07-31T01:41:09;100540.47;;;15.44
28905;BMP280;60848;53.884;11.446;2023-07-31T01:43:38;100541.25;;;15.44
28905;BMP280;60848;53.884;11.446;2023-07-31T01:46:08;100538.94;;;15.46
28905;BMP280;60848;53.884;11.446;2023-07-31T01:48:37;100540.81;;;15.46
28905;BMP280;60848;53.884;11.446;2023-07-31T01:51:05;100561.50;;;15.47
28905;BMP280;60848;53.884;11.446;2023-07-31T01:53:34;100559.22;;;15.49
28905;BMP280;60848;53.884;11.446;2023-07-31T01:56:02;100549.09;;;15.48
28905;BMP280;60848;53.884;11.446;2023-07-31T01:58:33;100535.16;;;15.47
28905;BMP280;60848;53.884;11.446;2023-07-31T02:01:01;100539.66;;;15.47
28905;BMP280;60848;53.884;11.446;2023-07-31T02:03:30;100539.66;;;15.47
28905;BMP280;60848;53.884;11.446;2023-07-31T02:05:58;100538.13;;;15.49
28905;BMP280;60848;53.884;11.446;2023-07-31T02:08:27;100534.38;;;15.47
28905;BMP280;60848;53.884;11.446;2023-07-31T02:10:55;100528.75;;;15.45
28905;BMP280;60848;53.884;11.446;2023-07-31T02:13:24;100528.75;;;15.45
28905;BMP280;60848;53.884;11.446;2023-07-31T02:15:54;100514.88;;;15.44
28905;BMP280;60848;53.884;11.446;2023-07-31T02:18:25;100522.44;;;15.42
28905;BMP280;60848;53.884;11.446;2023-07-31T02:20:53;100519.78;;;15.42
28905;BMP280;60848;53.884;11.446;2023-07-31T02:23:22;100517.53;;;15.44
28905;BMP280;60848;53.884;11.446;2023-07-31T02:25:50;100515.59;;;15.45
28905;BMP280;60848;53.884;11.446;2023-07-31T02:28:19;100500.59;;;15.42
28905;BMP280;60848;53.884;11.446;2023-07-31T02:30:47;100510.38;;;15.41
28905;BMP280;60848;53.884;11.446;2023-07-31T02:33:19;100496.84;;;15.39
28905;BMP280;60848;53.884;11.446;2023-07-31T02:35:50;100500.25;;;15.40
28905;BMP280;60848;53.884;11.446;2023-07-31T02:38:18;100497.28;;;15.38
28905;BMP280;60848;53.884;11.446;2023-07-31T02:40:47;100499.16;;;15.37
28905;BMP280;60848;53.884;11.446;2023-07-31T02:43:16;100498.78;;;15.35
28905;BMP280;60848;53.884;11.446;2023-07-31T02:45:44;100499.16;;;15.37
28905;BMP280;60848;53.884;11.446;2023-07-31T02:48:13;100488.94;;;15.39
28905;BMP280;60848;53.884;11.446;2023-07-31T02:50:42;100489.38;;;15.38
28905;BMP280;60848;53.884;11.446;2023-07-31T02:53:11;100486.31;;;15.39
28905;BMP280;60848;53.884;11.446;2023-07-31T02:55:42;100481.03;;;15.39
28905;BMP280;60848;53.884;11.446;2023-07-31T02:58:10;100475.38;;;15.41
28905;BMP280;60848;53.884;11.446;2023-07-31T03:00:42;100480.28;;;15.42
28905;BMP280;60848;53.884;11.446;2023-07-31T03:03:11;100482.91;;;15.42
28905;BMP280;60848;53.884;11.446;2023-07-31T03:05:39;100482.91;;;15.42
28905;BMP280;60848;53.884;11.446;2023-07-31T03:08:09;100479.13;;;15.43
28905;BMP280;60848;53.884;11.446;2023-07-31T03:10:37;100478.69;;;15.45
28905;BMP280;60848;53.884;11.446;2023-07-31T03:13:06;100483.59;;;15.46
28905;BMP280;60848;53.884;11.446;2023-07-31T03:15:34;100478.28;;;15.50
28905;BMP280;60848;53.884;11.446;2023-07-31T03:18:03;100479.00;;;15.50
28905;BMP280;60848;53.884;11.446;2023-07-31T03:20:31;100476.38;;;15.50
28905;BMP280;60848;53.884;11.446;2023-07-31T03:25:29;100472.94;;;15.53
28905;BMP280;60848;53.884;11.446;2023-07-31T03:27:58;100465.03;;;15.53
28905;BMP280;60848;53.884;11.446;2023-07-31T03:30:26;100472.94;;;15.53
28905;BMP280;60848;53.884;11.446;2023-07-31T03:32:57;100465.34;;;15.55
28905;BMP280;60848;53.884;11.446;2023-07-31T03:35:26;100471.00;;;15.57
28905;BMP280;60848;53.884;11.446;2023-07-31T03:37:54;100462.31;;;15.57
28905;BMP280;60848;53.884;11.446;2023-07-31T03:40:23;100467.25;;;15.55
28905;BMP280;60848;53.884;11.446;2023-07-31T03:42:53;100457.88;;;15.54
28905;BMP280;60848;53.884;11.446;2023-07-31T03:45:21;100467.66;;;15.53
28905;BMP280;60848;53.884;11.446;2023-07-31T03:47:50;100457.88;;;15.54
28905;BMP280;60848;53.884;11.446;2023-07-31T03:50:18;100461.63;;;15.53
28905;BMP280;60848;53.884;11.446;2023-07-31T03:52:47;100460.50;;;15.54
28905;BMP280;60848;53.884;11.446;2023-07-31T03:55:15;100455.66;;;15.52
28905;BMP280;60848;53.884;11.446;2023-07-31T03:57:44;100457.53;;;15.52
28905;BMP280;60848;53.884;11.446;2023-07-31T04:00:14;100449.97;;;15.54
28905;BMP280;60848;53.884;11.446;2023-07-31T04:02:43;100453.38;;;15.54
28905;BMP280;60848;53.884;11.446;2023-07-31T04:05:11;100443.16;;;15.56
28905;BMP280;60848;53.884;11.446;2023-07-31T04:07:42;100449.50;;;15.59
28905;BMP280;60848;53.884;11.446;2023-07-31T04:10:13;100443.84;;;15.60
28905;BMP280;60848;53.884;11.446;2023-07-31T04:12:41;100436.66;;;15.61
28905;BMP280;60848;53.884;11.446;2023-07-31T04:15:13;100437.75;;;15.63
28905;BMP280;60848;53.884;11.446;2023-07-31T04:17:42;100435.13;;;15.63
28905;BMP280;60848;53.884;11.446;2023-07-31T04:20:11;100441.16;;;15.64
28905;BMP280;60848;53.884;11.446;2023-07-31T04:22:41;100440.38;;;15.63
28905;BMP280;60848;53.884;11.446;2023-07-31T04:25:12;100444.13;;;15.66
28905;BMP280;60848;53.884;11.446;2023-07-31T04:27:40;100441.50;;;15.66
28905;BMP280;60848;53.884;11.446;2023-07-31T04:30:09;100451.22;;;15.69
28905;BMP280;60848;53.884;11.446;2023-07-31T04:32:39;100439.53;;;15.70
28905;BMP280;60848;53.884;11.446;2023-07-31T04:35:10;100447.38;;;15.73
28905;BMP280;60848;53.884;11.446;2023-07-31T04:37:39;100440.97;;;15.74
28905;BMP280;60848;53.884;11.446;2023-07-31T04:40:08;100440.56;;;15.76
28905;BMP280;60848;53.884;11.446;2023-07-31T04:42:36;100439.81;;;15.75
28905;BMP280;60848;53.884;11.446;2023-07-31T04:45:05;100444.25;;;15.82
28905;BMP280;60848;53.884;11.446;2023-07-31T04:47:34;100436.59;;;15.87
28905;BMP280;60848;53.884;11.446;2023-07-31T04:50:05;100442.19;;;15.89
28905;BMP280;60848;53.884;11.446;2023-07-31T04:52:33;100438.44;;;15.90
28905;BMP280;60848;53.884;11.446;2023-07-31T04:55:02;100433.84;;;15.94
28905;BMP280;60848;53.884;11.446;2023-07-31T04:57:32;100435.25;;;15.99
28905;BMP280;60848;53.884;11.446;2023-07-31T05:00:01;100426.59;;;15.98
28905;BMP280;60848;53.884;11.446;2023-07-31T05:02:32;100430.25;;;16.04
28905;BMP280;60848;53.884;11.446;2023-07-31T05:05:00;100429.78;;;16.09
28905;BMP280;60848;53.884;11.446;2023-07-31T05:07:30;100430.06;;;16.15
28905;BMP280;60848;53.884;11.446;2023-07-31T05:09:58;100423.19;;;16.21
28905;BMP280;60848;53.884;11.446;2023-07-31T05:12:27;100430.28;;;16.24
28905;BMP280;60848;53.884;11.446;2023-07-31T05:14:55;100421.91;;;16.29
28905;BMP280;60848;53.884;11.446;2023-07-31T05:17:23;100426.69;;;16.34
28905;BMP280;60848;53.884;11.446;2023-07-31T05:19:55;100418.69;;;16.38
28905;BMP280;60848;53.884;11.446;2023-07-31T05:22:23;100422.00;;;16.42
28905;BMP280;60848;53.884;11.446;2023-07-31T05:24:53;100415.94;;;16.45
28905;BMP280;60848;53.884;11.446;2023-07-31T05:27:22;100415.44;;;16.50
28905;BMP280;60848;53.884;11.446;2023-07-31T05:29:50;100412.75;;;16.53
28905;BMP280;60848;53.884;11.446;2023-07-31T05:32:19;100415.28;;;16.57
28905;BMP280;60848;53.884;11.446;2023-07-31T05:34:47;100408.47;;;16.59
28905;BMP280;60848;53.884;11.446;2023-07-31T05:37:15;100403.09;;;16.63
28905;BMP280;60848;53.884;11.446;2023-07-31T05:39:44;100410.19;;;16.66
28905;BMP280;60848;53.884;11.446;2023-07-31T05:42:14;100411.28;;;16.68
28905;BMP280;60848;53.884;11.446;2023-07-31T05:44:42;100405.94;;;16.72
28905;BMP280;60848;53.884;11.446;2023-07-31T05:47:11;100402.47;;;16.75
28905;BMP280;60848;53.884;11.446;2023-07-31T05:49:39;100396.75;;;16.76
28905;BMP280;60848;53.884;11.446;2023-07-31T05:52:07;100396.72;;;16.80
28905;BMP280;60848;53.884;11.446;2023-07-31T05:54:36;100392.47;;;16.82
28905;BMP280;60848;53.884;11.446;2023-07-31T05:57:05;100399.59;;;16.85
28905;BMP280;60848;53.884;11.446;2023-07-31T05:59:34;100400.25;;;16.89
28905;BMP280;60848;53.884;11.446;2023-07-31T06:02:05;100396.06;;;16.92
28905;BMP280;60848;53.884;11.446;2023-07-31T06:04:34;100394.78;;;16.96
28905;BMP280;60848;53.884;11.446;2023-07-31T06:07:05;100393.56;;;17.01
28905;BMP280;60848;53.884;11.446;2023-07-31T06:09:36;100401.81;;;17.03
28905;BMP280;60848;53.884;11.446;2023-07-31T06:12:05;100397.63;;;17.05
28905;BMP280;60848;53.884;11.446;2023-07-31T06:14:37;100393.50;;;17.04
28905;BMP280;60848;53.884;11.446;2023-07-31T06:17:07;100381.03;;;17.05
28905;BMP280;60848;53.884;11.446;2023-07-31T06:19:36;100379.91;;;17.06
28905;BMP280;60848;53.884;11.446;2023-07-31T06:22:05;100373.84;;;17.05
28905;BMP280;60848;53.884;11.446;2023-07-31T06:24:33;100368.47;;;17.09
28905;BMP280;60848;53.884;11.446;2023-07-31T06:27:02;100365.09;;;17.08
28905;BMP280;60848;53.884;11.446;2023-07-31T06:29:33;100358.66;;;17.09
28905;BMP280;60848;53.884;11.446;2023-07-31T06:32:03;100358.91;;;17.15
28905;BMP280;60848;53.884;11.446;2023-07-31T06:34:35;100363.34;;;17.18
28905;BMP280;60848;53.884;11.446;2023-07-31T06:37:06;100366.00;;;17.18
28905;BMP280;60848;53.884;11.446;2023-07-31T06:39:34;100362.50;;;17.21
28905;BMP280;60848;53.884;11.446;2023-07-31T06:42:03;100359.38;;;17.26
28905;BMP280;60848;53.884;11.446;2023-07-31T06:44:31;100361.59;;;17.27
28905;BMP280;60848;53.884;11.446;2023-07-31T06:46:59;100360.38;;;17.32
28905;BMP280;60848;53.884;11.446;2023-07-31T06:49:31;100369.28;;;17.38
28905;BMP280;60848;53.884;11.446;2023-07-31T06:52:00;100368.03;;;17.42
28905;BMP280;60848;53.884;11.446;2023-07-31T06:54:28;100357.34;;;17.46
28905;BMP280;60848;53.884;11.446;2023-07-31T06:56:57;100364.03;;;17.50
28905;BMP280;60848;53.884;11.446;2023-07-31T06:59:25;100361.75;;;17.52
28905;BMP280;60848;53.884;11.446;2023-07-31T07:02:01;100362.38;;;17.56
28905;BMP280;60848;53.884;11.446;2023-07-31T07:04:34;100366.81;;;17.59
28905;BMP280;60848;53.884;11.446;2023-07-31T07:07:05;100363.84;;;17.57
28905;BMP280;60848;53.884;11.446;2023-07-31T07:09:36;100365.66;;;17.60
28905;BMP280;60848;53.884;11.446;2023-07-31T07:12:05;100358.81;;;17.63
28905;BMP280;60848;53.884;11.446;2023-07-31T07:14:33;100366.31;;;17.64
28905;BMP280;60848;53.884;11.446;2023-07-31T07:17:02;100368.13;;;17.67
28905;BMP280;60848;53.884;11.446;2023-07-31T07:19:30;100366.13;;;17.71
28905;BMP280;60848;53.884;11.446;2023-07-31T07:22:00;100361.19;;;17.73
28905;BMP280;60848;53.884;11.446;2023-07-31T07:24:29;100363.38;;;17.75
28905;BMP280;60848;53.884;11.446;2023-07-31T07:26:57;100361.47;;;17.75
28905;BMP280;60848;53.884;11.446;2023-07-31T07:29:26;100363.28;;;17.78
28905;BMP280;60848;53.884;11.446;2023-07-31T07:31:54;100356.41;;;17.81
28905;BMP280;60848;53.884;11.446;2023-07-31T07:34:25;100361.72;;;17.81
28905;BMP280;60848;53.884;11.446;2023-07-31T07:36:53;100350.75;;;17.82
28905;BMP280;60848;53.884;11.446;2023-07-31T07:39:23;100354.53;;;17.81
28905;BMP280;60848;53.884;11.446;2023-07-31T07:41:52;100354.81;;;17.83
28905;BMP280;60848;53.884;11.446;2023-07-31T07:44:21;100355.81;;;17.89
28905;BMP280;60848;53.884;11.446;2023-07-31T07:46:49;100356.13;;;17.91
28905;BMP280;60848;53.884;11.446;2023-07-31T07:49:18;100357.53;;;17.96
28905;BMP280;60848;53.884;11.446;2023-07-31T07:51:46;100355.19;;;17.98
28905;BMP280;60848;53.884;11.446;2023-07-31T07:54:16;100353.19;;;18.02
28905;BMP280;60848;53.884;11.446;2023-07-31T07:56:46;100348.97;;;18.04
28905;BMP280;60848;53.884;11.446;2023-07-31T07:59:15;100348.84;;;18.08
28905;BMP280;60848;53.884;11.446;2023-07-31T08:01:43;100348.44;;;18.09
28905;BMP280;60848;53.884;11.446;2023-07-31T08:04:11;100353.66;;;18.13
28905;BMP280;60848;53.884;11.446;2023-07-31T08:06:40;100354.38;;;18.13
28905;BMP280;60848;53.884;11.446;2023-07-31T08:09:09;100357.75;;;18.14
28905;BMP280;60848;53.884;11.446;2023-07-31T08:11:37;100354.38;;;18.13
28905;BMP280;60848;53.884;11.446;2023-07-31T08:14:07;100346.09;;;18.11
28905;BMP280;60848;53.884;11.446;2023-07-31T08:16:36;100356.38;;;18.09
28905;BMP280;60848;53.884;11.446;2023-07-31T08:19:07;100358.31;;;18.09
28905;BMP280;60848;53.884;11.446;2023-07-31T08:21:38;100363.34;;;18.03
28905;BMP280;60848;53.884;11.446;2023-07-31T08:24:09;100360.06;;;17.99
28905;BMP280;60848;53.884;11.446;2023-07-31T08:26:38;100362.31;;;18.01
28905;BMP280;60848;53.884;11.446;2023-07-31T08:29:08;100353.28;;;17.98
28905;BMP280;60848;53.884;11.446;2023-07-31T08:31:37;100349.59;;;17.96
28905;BMP280;60848;53.884;11.446;2023-07-31T08:34:05;100349.69;;;17.92
28905;BMP280;60848;53.884;11.446;2023-07-31T08:36:34;100341.00;;;17.92
28905;BMP280;60848;53.884;11.446;2023-07-31T08:39:02;100336.53;;;17.89
28905;BMP280;60848;53.884;11.446;2023-07-31T08:41:31;100335.50;;;17.86
28905;BMP280;60848;53.884;11.446;2023-07-31T08:44:05;100336.66;;;17.85
28905;BMP280;60848;53.884;11.446;2023-07-31T08:46:38;100336.31;;;17.83
28905;BMP280;60848;53.884;11.446;2023-07-31T08:49:08;100333.38;;;17.81
28905;BMP280;60848;53.884;11.446;2023-07-31T08:51:37;100328.81;;;17.82
28905;BMP280;60848;53.884;11.446;2023-07-31T08:54:06;100325.00;;;17.83
28905;BMP280;60848;53.884;11.446;2023-07-31T08:56:35;100324.28;;;17.82
28905;BMP280;60848;53.884;11.446;2023-07-31T08:59:04;100317.38;;;17.85
28905;BMP280;60848;53.884;11.446;2023-07-31T09:01:35;100313.06;;;17.91
28905;BMP280;60848;53.884;11.446;2023-07-31T09:04:05;100309.44;;;17.97
28905;BMP280;60848;53.884;11.446;2023-07-31T09:06:35;100301.66;;;18.06
28905;BMP280;60848;53.884;11.446;2023-07-31T09:09:04;100301.84;;;18.12
28905;BMP280;60848;53.884;11.446;2023-07-31T09:11:35;100306.97;;;18.19
28905;BMP280;60848;53.884;11.446;2023-07-31T09:14:03;100303.66;;;18.27
28905;BMP280;60848;53.884;11.446;2023-07-31T09:16:51;100319.97;;;18.38
28905;BMP280;60848;53.884;11.446;2023-07-31T09:19:29;100320.91;;;18.44
28905;BMP280;60848;53.884;11.446;2023-07-31T09:21:58;100313.94;;;18.50
28905;BMP280;60848;53.884;11.446;2023-07-31T09:24:27;100319.44;;;18.56
28905;BMP280;60848;53.884;11.446;2023-07-31T09:27:00;100315.94;;;18.59
28905;BMP280;60848;53.884;11.446;2023-07-31T09:29:29;100320.06;;;18.60
28905;BMP280;60848;53.884;11.446;2023-07-31T09:31:57;100316.66;;;18.59
28905;BMP280;60848;53.884;11.446;2023-07-31T09:34:37;100315.50;;;18.60
28905;BMP280;60848;53.884;11.446;2023-07-31T09:37:05;100313.91;;;18.63
28905;BMP280;60848;53.884;11.446;2023-07-31T09:39:45;100312.63;;;18.67
28905;BMP280;60848;53.884;11.446;2023-07-31T09:42:13;100303.84;;;18.71
28905;BMP280;60848;53.884;11.446;2023-07-31T09:44:44;100299.03;;;18.78
28905;BMP280;60848;53.884;11.446;2023-07-31T09:47:22;100292.47;;;18.83
28905;BMP280;60848;53.884;11.446;2023-07-31T09:49:54;100289.81;;;18.83
28905;BMP280;60848;53.884;11.446;2023-07-31T09:52:22;100289.69;;;18.86
28905;BMP280;60848;53.884;11.446;2023-07-31T09:54:54;100290.75;;;18.89
28905;BMP280;60848;53.884;11.446;2023-07-31T09:57:22;100296.69;;;18.93
28905;BMP280;60848;53.884;11.446;2023-07-31T09:59:54;100298.16;;;18.94
28905;BMP280;60848;53.884;11.446;2023-07-31T10:04:54;100291.47;;;19.02
28905;BMP280;60848;53.884;11.446;2023-07-31T10:07:27;100281.59;;;19.02
28905;BMP280;60848;53.884;11.446;2023-07-31T10:09:58;100277.34;;;19.05
28905;BMP280;60848;53.884;11.446;2023-07-31T10:12:30;100276.91;;;19.06
28905;BMP280;60848;53.884;11.446;2023-07-31T10:15:00;100266.72;;;19.05
28905;BMP280;60848;53.884;11.446;2023-07-31T10:17:29;100263.22;;;19.08
28905;BMP280;60848;53.884;11.446;2023-07-31T10:19:59;100257.16;;;19.07
28905;BMP280;60848;53.884;11.446;2023-07-31T10:22:31;100256.75;;;19.09
28905;BMP280;60848;53.884;11.446;2023-07-31T10:25:02;100260.75;;;19.13
28905;BMP280;60848;53.884;11.446;2023-07-31T10:27:30;100263.72;;;19.15
28905;BMP280;60848;53.884;11.446;2023-07-31T10:29:59;100257.53;;;19.18
28905;BMP280;60848;53.884;11.446;2023-07-31T10:32:27;100256.06;;;19.17
28905;BMP280;60848;53.884;11.446;2023-07-31T10:34:56;100255.13;;;19.11
28905;BMP280;60848;53.884;11.446;2023-07-31T10:37:29;100251.44;;;19.09
28905;BMP280;60848;53.884;11.446;2023-07-31T10:40:02;100249.13;;;18.98
28905;BMP280;60848;53.884;11.446;2023-07-31T10:42:35;100247.19;;;18.90
28905;BMP280;60848;53.884;11.446;2023-07-31T10:45:04;100245.53;;;18.83
28905;BMP280;60848;53.884;11.446;2023-07-31T10:47:37;100250.63;;;18.78
28905;BMP280;60848;53.884;11.446;2023-07-31T10:50:20;100246.94;;;18.75
28905;BMP280;60848;53.884;11.446;2023-07-31T10:52:53;100244.50;;;18.68
28905;BMP280;60848;53.884;11.446;2023-07-31T10:55:27;100242.59;;;18.68
28905;BMP280;60848;53.884;11.446;2023-07-31T10:58:06;100230.22;;;18.66
28905;BMP280;60848;53.884;11.446;2023-07-31T11:00:37;100222.34;;;18.62
28905;BMP280;60848;53.884;11.446;2023-07-31T11:03:07;100229.16;;;18.63
28905;BMP280;60848;53.884;11.446;2023-07-31T11:05:42;100231.91;;;18.59
28905;BMP280;60848;53.884;11.446;2023-07-31T11:08:17;100229.94;;;18.51
28905;BMP280;60848;53.884;11.446;2023-07-31T11:10:47;100222.00;;;18.51
28905;BMP280;60848;53.884;11.446;2023-07-31T11:13:16;100223.88;;;18.50
28905;BMP280;60848;53.884;11.446;2023-07-31T11:15:45;100225.66;;;18.53
28905;BMP280;60848;53.884;11.446;2023-07-31T11:18:13;100227.16;;;18.54
28905;BMP280;60848;53.884;11.446;2023-07-31T11:20:44;100219.97;;;18.55
28905;BMP280;60848;53.884;11.446;2023-07-31T11:23:12;100224.50;;;18.54
28905;BMP280;60848;53.884;11.446;2023-07-31T11:25:42;100225.25;;;18.55
28905;BMP280;60848;53.884;11.446;2023-07-31T11:28:13;100219.53;;;18.56
28905;BMP280;60848;53.884;11.446;2023-07-31T11:30:42;100212.97;;;18.61
28905;BMP280;60848;53.884;11.446;2023-07-31T11:33:12;100211.69;;;18.66
28905;BMP280;60848;53.884;11.446;2023-07-31T11:35:42;100206.69;;;18.67
28905;BMP280;60848;53.884;11.446;2023-07-31T11:38:16;100205.09;;;18.70
28905;BMP280;60848;53.884;11.446;2023-07-31T11:40:51;100195.41;;;18.76
28905;BMP280;60848;53.884;11.446;2023-07-31T11:43:20;100185.13;;;18.78
28905;BMP280;60848;53.884;11.446;2023-07-31T11:45:52;100197.38;;;18.85
28905;BMP280;60848;53.884;11.446;2023-07-31T11:48:22;100201.72;;;18.91
28905;BMP280;60848;53.884;11.446;2023-07-31T11:50:51;100192.88;;;18.94
28905;BMP280;60848;53.884;11.446;2023-07-31T11:53:26;100199.38;;;18.93
28905;BMP280;60848;53.884;11.446;2023-07-31T11:55:58;100193.63;;;18.95
28905;BMP280;60848;53.884;11.446;2023-07-31T11:58:30;100196.59;;;18.97
28905;BMP280;60848;53.884;11.446;2023-07-31T12:00:59;100187.78;;;19.00
28905;BMP280;60848;53.884;11.446;2023-07-31T12:03:27;100182.47;;;19.00
28905;BMP280;60848;53.884;11.446;2023-07-31T12:05:56;100182.81;;;19.02
28905;BMP280;60848;53.884;11.446;2023-07-31T12:08:25;100182.34;;;19.03
28905;BMP280;60848;53.884;11.446;2023-07-31T12:10:54;100184.56;;;19.05
28905;BMP280;60848;53.884;11.446;2023-07-31T12:13:32;100179.28;;;19.05
28905;BMP280;60848;53.884;11.446;2023-07-31T12:16:03;100176.63;;;19.05
28905;BMP280;60848;53.884;11.446;2023-07-31T12:18:34;100171.47;;;19.01
28905;BMP280;60848;53.884;11.446;2023-07-31T12:21:04;100176.75;;;19.01
28905;BMP280;60848;53.884;11.446;2023-07-31T12:23:35;100174.84;;;19.02
28905;BMP280;60848;53.884;11.446;2023-07-31T12:26:05;100169.09;;;19.03
28905;BMP280;60848;53.884;11.446;2023-07-31T12:28:40;100172.81;;;19.06
28905;BMP280;60848;53.884;11.446;2023-07-31T12:31:10;100161.75;;;19.07
28905;BMP280;60848;53.884;11.446;2023-07-31T12:33:40;100166.19;;;19.10
28905;BMP280;60848;53.884;11.446;2023-07-31T12:36:09;100163.09;;;19.12
28905;BMP280;60848;53.884;11.446;2023-07-31T12:38:38;100169.88;;;19.13
28905;BMP280;60848;53.884;11.446;2023-07-31T12:41:06;100164.44;;;19.16
28905;BMP280;60848;53.884;11.446;2023-07-31T12:43:35;100162.84;;;19.19
28905;BMP280;60848;53.884;11.446;2023-07-31T12:46:06;100167.00;;;19.20
28905;BMP280;60848;53.884;11.446;2023-07-31T12:48:37;100168.34;;;19.24
28905;BMP280;60848;53.884;11.446;2023-07-31T12:51:05;100170.88;;;19.28
28905;BMP280;60848;53.884;11.446;2023-07-31T12:53:35;100163.06;;;19.33
28905;BMP280;60848;53.884;11.446;2023-07-31T12:56:03;100144.50;;;19.33
28905;BMP280;60848;53.884;11.446;2023-07-31T12:58:34;100151.84;;;19.29
28905;BMP280;60848;53.884;11.446;2023-07-31T13:01:04;100146.25;;;19.27
28905;BMP280;60848;53.884;11.446;2023-07-31T13:03:33;100139.47;;;19.26
28905;BMP280;60848;53.884;11.446;2023-07-31T13:06:02;100139.28;;;19.21
28905;BMP280;60848;53.884;11.446;2023-07-31T13:08:31;100142.84;;;19.18
28905;BMP280;60848;53.884;11.446;2023-07-31T13:10:59;100134.56;;;19.16
28905;BMP280;60848;53.884;11.446;2023-07-31T13:13:27;100132.63;;;19.16
28905;BMP280;60848;53.884;11.446;2023-07-31T13:15:59;100132.53;;;19.20
28905;BMP280;60848;53.884;11.446;2023-07-31T13:18:29;100134.59;;;19.25
28905;BMP280;60848;53.884;11.446;2023-07-31T13:20:57;100145.94;;;19.25
28905;BMP280;60848;53.884;11.446;2023-07-31T13:23:25;100152.00;;;19.26
28905;BMP280;60848;53.884;11.446;2023-07-31T13:25:54;100145.50;;;19.27
28905;BMP280;60848;53.884;11.446;2023-07-31T13:28:22;100138.16;;;19.31
28905;BMP280;60848;53.884;11.446;2023-07-31T13:30:53;100141.84;;;19.33
28905;BMP280;60848;53.884;11.446;2023-07-31T13:33:21;100142.59;;;19.34
28905;BMP280;60848;53.884;11.446;2023-07-31T13:36:05;100143.94;;;19.38
28905;BMP280;60848;53.884;11.446;2023-07-31T13:38:34;100148.38;;;19.41
28905;BMP280;60848;53.884;11.446;2023-07-31T13:41:02;100145.59;;;19.45
28905;BMP280;60848;53.884;11.446;2023-07-31T13:43:32;100137.50;;;19.48
28905;BMP280;60848;53.884;11.446;2023-07-31T13:46:00;100132.66;;;19.56
28905;BMP280;60848;53.884;11.446;2023-07-31T13:48:34;100130.19;;;19.61
28905;BMP280;60848;53.884;11.446;2023-07-31T13:51:04;100129.31;;;19.64
28905;BMP280;60848;53.884;11.446;2023-07-31T13:53:36;100120.75;;;19.69
28905;BMP280;60848;53.884;11.446;2023-07-31T13:56:05;100112.63;;;19.73
28905;BMP280;60848;53.884;11.446;2023-07-31T13:58:33;100113.22;;;19.68
28905;BMP280;60848;53.884;11.446;2023-07-31T14:01:02;100120.00;;;19.60
28905;BMP280;60848;53.884;11.446;2023-07-31T14:03:31;100121.75;;;19.54